Allisonia, VA

11:25 AM EDT on October 24, 2014 (GMT -0400)
Blue Springs | Change Station
CLOSE
Current Station
Personal Weather Station
Location: Snowville, VA
Elevation: 2490 ft
Nearby Weather Stations

Elev 2490 ft 37.00 °N, 80.56 °W | Updated 40 seconds ago

Mostly Cloudy
Mostly Cloudy
51.2 °F
Feels Like 51.2 °F
N
3.0
Wind Variable Wind from NNW
Gusts 3.0 mph

Today
High -- | Low -- °F
--% Chance of Precip.
Yesterday
High -- | Low -- °F
Precip. -- in
7:38 AM 6:34 PM
New Moon, 1% visible
Pressure 30.12 in
Visibility 10.0 miles
Clouds Clear
Dew Point 43 °F
Humidity 74%
Rainfall 0.00 in
Snow Depth Not available.
UV 4 out of 12
Pollen 1.20 out of 12
Air Quality Not available.
Flu Activity Local Activity
METAR KPSK 241515Z AUTO 25004KT 10SM CLR 12/07 A3012 RMK AO2 T01170068

More Conditions Fewer Conditions

Pressure 30.12 in
Visibility 10.0 miles
Clouds Clear
Dew Point 43 °F
Humidity 74%
Rainfall 0.00 in
Snow Depth Not available.
UV 4 out of 12
Pollen 1.20 out of 12
Air Quality Not available.
Flu Activity Local Activity
METAR KPSK 241515Z AUTO 25004KT 10SM CLR 12/07 A3012 RMK AO2 T01170068

More Conditions Fewer Conditions

10-Day Weather Forecast

Almanac

Astronomy

Oct. 24, 2014 Rise Set
Actual Time 7:38 AM EDT 6:34 PM EDT
Civil Twilight 7:12 AM EDT 7:00 PM EDT
Nautical Twilight 6:41 AM EDT 7:30 PM EDT
Astronomical Twilight 6:11 AM EDT 8:01 PM EDT
Moon 8:15 AM EDT 7:14 PM EDT
Length of Visible Light 11h 48m
Length of Day
10h 55m
Tomorrow will be 2m 10s shorter.
New Moon, 1% of the Moon is Illuminated
Today
New Moon
Oct 30
First Quarter
Nov 6
Full
Nov 14
Last Quarter
Nov 22
New

Today's Extremes

State Highs State Lows

Community

WunderPhotos

Upload Photos

1,764,588 photos uploaded!

WunderBlogs® & News

By Dr. Jeff Masters
Director of Meteorology, Weather Underground
By Kari Strenfel
Meteorologist, Weather Underground
By Christopher C. Burt
Weather Historian, Weather Underground
October 24, 2014
October 24, 2014
October 24, 2014

Nearby

Snow Depth

Station Depth Elevation
No new snow has been reported.

Earthquake Activity

City Distance Mag. Time & Date
No recent earthquake activity has been reported nearby.
Minimum magnitude displayed is 2.5.

Coastal Water Temperatures

Place Temperature
No Stations Reporting

Nearby Weather Stations